Carlton, Washington
Current Conditions -  °F | °C
As of 4:14 AM on Thursday 18 Dec 2014 (Local Time) from KOMK Reporting Station
Light Rain Light Rain  
Wind Chill: 29°   Ceiling: 200
Heat Index: 33°   Visibility: 2mi
Dew Point: 32°   Wind: 5mph
Humidity: 96%   Direction: 150°SSE
Pressure: 29.99"   Gusts: NA
Location:  48.25°N, 120.12°W
Report Text: KOMK 181214Z AUTO 15004KT 2SM -RA BR BKN002 OVC016 01/00 A2999 RMK AO2 RAB1154 P0001 T00060000
Loading
Personal Weather Stations






























Interactive Weather Map New forecast layout! Learn more

10-Day Weather Forecast

Advertisements
Track Severe Weather on mobile